createdAt,value
2022-12-02T00:01:42.915Z,18.83
2022-12-02T00:05:04.361Z,17.83
2022-12-02T00:11:39.808Z,19.65
2022-12-02T00:15:01.574Z,17.68
2022-12-02T00:18:21.004Z,19.18
2022-12-02T00:21:38.753Z,18.78
2022-12-02T00:24:55.753Z,18.10
2022-12-02T00:28:13.353Z,18.38
2022-12-02T00:31:30.380Z,18.15
2022-12-02T00:34:47.144Z,19.73
2022-12-02T00:38:04.713Z,20.88
2022-12-02T00:41:21.841Z,20.23
2022-12-02T00:44:56.943Z,19.63
2022-12-02T00:48:14.831Z,18.33
2022-12-02T00:51:32.289Z,17.65
2022-12-02T00:54:49.928Z,20.23
2022-12-02T00:58:08.389Z,20.65
2022-12-02T01:01:27.297Z,19.88
2022-12-02T01:04:44.315Z,18.93
2022-12-02T01:08:01.546Z,18.63
2022-12-02T01:11:19.153Z,19.60
2022-12-02T01:14:35.927Z,18.88
2022-12-02T01:17:53.232Z,19.40
2022-12-02T01:21:17.967Z,18.95
2022-12-02T01:24:35.425Z,20.88
2022-12-02T01:27:52.602Z,20.78
2022-12-02T01:31:09.516Z,20.50
2022-12-02T01:34:26.522Z,21.50
2022-12-02T01:37:43.552Z,21.45
2022-12-02T01:41:00.657Z,22.28
2022-12-02T01:44:18.003Z,21.10
2022-12-02T01:47:34.964Z,21.90
2022-12-02T01:50:51.983Z,21.20
2022-12-02T01:54:22.972Z,21.30
2022-12-02T01:57:41.107Z,23.60
2022-12-02T02:00:57.952Z,22.68
2022-12-02T02:04:19.284Z,23.23
2022-12-02T02:07:37.215Z,23.28
2022-12-02T02:10:56.539Z,22.45
2022-12-02T02:14:15.934Z,23.50
2022-12-02T02:17:33.390Z,22.70
2022-12-02T02:20:51.812Z,21.45
2022-12-02T02:24:14.308Z,21.30
2022-12-02T02:27:31.483Z,21.90
2022-12-02T02:30:48.661Z,21.88
2022-12-02T02:34:07.009Z,21.75
2022-12-02T02:37:23.722Z,22.23
2022-12-02T02:40:41.925Z,21.25
2022-12-02T02:43:59.364Z,22.23
2022-12-02T02:47:16.008Z,21.53
2022-12-02T02:50:33.716Z,21.40
2022-12-02T02:53:57.860Z,22.65
2022-12-02T02:57:16.181Z,21.95
2022-12-02T03:03:55.174Z,21.88
2022-12-02T03:07:12.123Z,21.48
2022-12-02T03:10:29.236Z,22.00
2022-12-02T03:13:48.890Z,22.55
2022-12-02T03:20:21.675Z,23.55
2022-12-02T03:23:40.295Z,21.05
2022-12-02T03:26:57.865Z,20.75
2022-12-02T03:30:18.571Z,22.33
2022-12-02T03:33:36.775Z,21.95
2022-12-02T03:36:54.024Z,23.30
2022-12-02T03:40:12.047Z,22.35
2022-12-02T03:43:29.391Z,21.83
2022-12-02T03:46:46.438Z,21.08
2022-12-02T03:50:03.194Z,21.53
2022-12-02T03:53:19.652Z,22.23
2022-12-02T03:56:36.526Z,22.08
2022-12-02T03:59:53.350Z,20.80
2022-12-02T04:03:10.355Z,21.58
2022-12-02T04:06:28.418Z,20.83
2022-12-02T04:09:45.407Z,20.23
2022-12-02T04:13:03.521Z,19.63
2022-12-02T04:16:20.277Z,19.08
2022-12-02T04:19:36.994Z,20.40
2022-12-02T04:22:53.990Z,19.93
2022-12-02T04:26:10.678Z,20.18
2022-12-02T04:29:30.254Z,19.75
2022-12-02T04:32:47.553Z,19.78
2022-12-02T04:36:04.921Z,20.43
2022-12-02T04:39:21.722Z,20.93
2022-12-02T04:42:38.718Z,20.55
2022-12-02T04:45:56.803Z,21.03
2022-12-02T04:49:13.616Z,20.83
2022-12-02T04:52:32.607Z,19.73
2022-12-02T04:55:49.656Z,21.28
2022-12-02T04:59:08.371Z,19.90
2022-12-02T05:02:26.228Z,19.63
2022-12-02T05:05:43.788Z,19.35
2022-12-02T05:09:01.071Z,20.00
2022-12-02T05:12:17.817Z,18.60
2022-12-02T05:15:34.534Z,17.88
2022-12-02T05:18:51.661Z,18.95
2022-12-02T05:22:08.377Z,20.45
2022-12-02T05:25:25.625Z,19.05
2022-12-02T05:28:42.348Z,18.10
2022-12-02T05:31:58.851Z,17.60
2022-12-02T05:35:16.372Z,16.55
2022-12-02T05:38:38.566Z,20.43
2022-12-02T05:41:58.057Z,17.70
2022-12-02T05:48:40.531Z,19.25
2022-12-02T05:52:03.870Z,16.63
2022-12-02T05:55:26.768Z,17.88
2022-12-02T05:58:43.676Z,18.60
2022-12-02T06:02:03.094Z,18.05
2022-12-02T06:05:29.643Z,18.33
2022-12-02T06:08:47.299Z,17.95
2022-12-02T06:12:06.114Z,19.33
2022-12-02T06:15:25.302Z,18.98
2022-12-02T06:18:44.441Z,18.58
2022-12-02T06:22:04.110Z,19.28
2022-12-02T06:28:47.362Z,19.03
2022-12-02T06:32:05.665Z,18.63
2022-12-02T06:35:32.767Z,18.50
2022-12-02T06:38:55.396Z,19.40
2022-12-02T06:42:17.471Z,18.98
2022-12-02T06:45:38.064Z,18.63
2022-12-02T06:48:56.316Z,19.05
2022-12-02T06:52:22.412Z,18.73
2022-12-02T06:55:42.507Z,17.28
2022-12-02T06:59:07.177Z,17.53
2022-12-02T07:02:29.021Z,16.60
2022-12-02T07:05:47.884Z,17.33
2022-12-02T07:09:16.311Z,16.13
2022-12-02T07:12:37.842Z,15.65
2022-12-02T07:16:13.342Z,16.20
2022-12-02T07:19:38.315Z,16.33
2022-12-02T07:23:06.490Z,16.50
2022-12-02T07:26:26.325Z,17.90
2022-12-02T07:29:43.906Z,17.48
2022-12-02T07:33:02.840Z,18.48
2022-12-02T07:36:20.347Z,15.93
2022-12-02T07:39:37.546Z,20.08
2022-12-02T07:42:55.861Z,15.88
2022-12-02T07:46:14.294Z,15.20
2022-12-02T07:49:30.978Z,16.53
2022-12-02T07:52:47.858Z,16.58
2022-12-02T07:56:04.831Z,16.08
2022-12-02T07:59:21.721Z,17.08
2022-12-02T08:02:46.375Z,15.55
2022-12-02T08:06:04.984Z,15.50
2022-12-02T08:09:21.396Z,15.30
2022-12-02T08:12:39.840Z,16.43
2022-12-02T08:15:59.266Z,16.10
2022-12-02T08:19:15.614Z,16.60
2022-12-02T08:22:32.229Z,15.58
2022-12-02T08:25:50.863Z,16.18
2022-12-02T08:29:07.327Z,15.58
2022-12-02T08:32:23.795Z,16.98
2022-12-02T08:35:41.964Z,16.10
2022-12-02T08:38:58.835Z,16.38
2022-12-02T08:42:16.292Z,15.90
2022-12-02T08:45:32.605Z,16.40
2022-12-02T08:48:48.912Z,17.18
2022-12-02T08:52:05.220Z,16.40
2022-12-02T08:55:21.518Z,17.23
2022-12-02T08:58:42.025Z,16.68
2022-12-02T09:01:58.854Z,16.45
2022-12-02T09:05:15.865Z,17.18
2022-12-02T09:08:34.137Z,17.95
2022-12-02T09:11:51.434Z,17.33
2022-12-02T09:15:08.321Z,17.20
2022-12-02T09:18:25.860Z,17.75
2022-12-02T09:21:42.842Z,17.65
2022-12-02T09:25:00.412Z,18.15
2022-12-02T09:28:17.191Z,18.15
2022-12-02T09:31:33.769Z,19.10
2022-12-02T09:34:52.327Z,18.20
2022-12-02T09:38:12.138Z,18.55
2022-12-02T09:41:30.999Z,28.73
2022-12-02T09:44:51.484Z,37.05
2022-12-02T09:48:11.839Z,19.55
2022-12-02T09:54:43.424Z,19.53
2022-12-02T09:58:00.411Z,18.53
2022-12-02T10:01:22.643Z,19.95
2022-12-02T10:04:42.080Z,19.43
2022-12-02T10:08:01.983Z,19.03
2022-12-02T10:11:24.758Z,19.60
2022-12-02T10:14:41.508Z,18.08
2022-12-02T10:17:59.229Z,20.20
2022-12-02T10:21:16.528Z,20.00
2022-12-02T10:24:47.407Z,20.03
2022-12-02T10:28:04.238Z,20.85
2022-12-02T10:31:25.342Z,20.70
2022-12-02T10:34:43.409Z,19.88
2022-12-02T10:38:01.189Z,44.55
2022-12-02T10:41:30.806Z,22.80
2022-12-02T10:44:50.346Z,19.90
2022-12-02T10:48:21.163Z,19.75
2022-12-02T10:51:40.161Z,19.65
2022-12-02T10:55:00.187Z,20.13
2022-12-02T10:58:27.649Z,20.18
2022-12-02T11:01:47.226Z,43.38
2022-12-02T11:05:07.083Z,25.50
2022-12-02T11:08:33.864Z,20.15
2022-12-02T11:11:50.359Z,18.50
2022-12-02T11:15:07.206Z,20.43
2022-12-02T11:18:54.842Z,20.15
2022-12-02T11:22:12.054Z,20.18
2022-12-02T11:26:16.494Z,20.10
2022-12-02T11:29:33.868Z,20.95
2022-12-02T11:32:59.737Z,20.58
2022-12-02T11:36:23.549Z,19.43
2022-12-02T11:39:53.408Z,20.78
2022-12-02T11:44:02.386Z,21.77
2022-12-02T11:47:34.101Z,20.73
2022-12-02T11:50:51.729Z,22.10
2022-12-02T11:54:08.368Z,21.60
2022-12-02T11:57:35.311Z,20.98
2022-12-02T12:01:09.077Z,19.18
2022-12-02T12:04:37.015Z,21.20
2022-12-02T12:08:03.069Z,19.90
2022-12-02T12:11:35.489Z,19.83
2022-12-02T12:15:11.146Z,19.60
2022-12-02T12:18:51.894Z,19.20
2022-12-02T12:22:09.271Z,20.85
2022-12-02T12:25:49.331Z,21.45
2022-12-02T12:29:11.036Z,22.33
2022-12-02T12:32:27.763Z,19.93
2022-12-02T12:35:44.076Z,21.10
2022-12-02T12:39:00.396Z,20.50
2022-12-02T12:42:16.696Z,20.83
2022-12-02T12:45:59.428Z,20.43
2022-12-02T12:49:33.676Z,18.65
2022-12-02T12:52:50.569Z,18.18
2022-12-02T12:56:08.132Z,18.20
2022-12-02T12:59:24.497Z,18.88
2022-12-02T13:02:40.699Z,18.23
2022-12-02T13:05:59.800Z,20.20
2022-12-02T13:09:16.124Z,18.63
2022-12-02T13:12:32.361Z,20.80
2022-12-02T13:15:48.622Z,21.30
2022-12-02T13:19:06.146Z,20.40
2022-12-02T13:22:28.751Z,21.03
2022-12-02T13:25:57.930Z,20.90
2022-12-02T13:29:14.663Z,21.88
2022-12-02T13:32:33.594Z,20.20
2022-12-02T13:35:52.427Z,21.03
2022-12-02T13:39:13.187Z,20.52
2022-12-02T13:42:33.865Z,21.93
2022-12-02T13:45:52.061Z,20.33
2022-12-02T13:49:09.472Z,21.65
2022-12-02T13:52:28.566Z,22.20
2022-12-02T13:55:46.318Z,21.03
2022-12-02T13:59:02.670Z,20.50
2022-12-02T14:02:20.500Z,21.20
2022-12-02T14:05:36.878Z,21.70
2022-12-02T14:08:53.350Z,21.45
2022-12-02T14:12:19.837Z,21.40
2022-12-02T14:15:36.142Z,21.45
2022-12-02T14:18:57.051Z,20.15
2022-12-02T14:25:25.781Z,21.65
2022-12-02T14:28:42.408Z,21.30
2022-12-02T14:31:58.686Z,22.63
2022-12-02T14:35:17.985Z,24.55
2022-12-02T14:38:34.613Z,23.48
2022-12-02T14:41:54.505Z,22.65
2022-12-02T14:45:12.694Z,23.30
2022-12-02T14:48:33.181Z,21.53
2022-12-02T14:51:50.612Z,21.40
2022-12-02T14:55:07.852Z,21.00
2022-12-02T14:58:24.075Z,21.70
2022-12-02T15:01:40.962Z,22.63
2022-12-02T15:04:57.532Z,22.68
2022-12-02T15:08:18.811Z,22.50
2022-12-02T15:11:36.429Z,22.35
2022-12-02T15:14:53.144Z,22.83
2022-12-02T15:18:11.440Z,22.13
2022-12-02T15:21:27.853Z,45.75
2022-12-02T15:28:05.441Z,23.55
2022-12-02T15:32:00.128Z,22.93
2022-12-02T15:35:19.446Z,24.53
2022-12-02T15:41:54.061Z,24.38
2022-12-02T15:45:12.566Z,24.35
2022-12-02T15:48:29.486Z,23.40
2022-12-02T15:51:46.385Z,24.88
2022-12-02T15:58:24.492Z,24.80
2022-12-02T16:01:44.895Z,24.40
2022-12-02T16:05:01.526Z,51.50
2022-12-02T16:08:18.036Z,27.60
2022-12-02T16:11:36.017Z,27.40
2022-12-02T16:14:55.499Z,29.43
2022-12-02T16:18:10.859Z,27.73
2022-12-02T16:21:28.619Z,29.63
2022-12-02T16:28:07.458Z,29.53
2022-12-02T16:31:24.393Z,29.50
2022-12-02T16:34:41.186Z,30.78
2022-12-02T16:38:02.889Z,30.43
2022-12-02T16:41:16.713Z,31.98
2022-12-02T16:44:35.834Z,31.23
2022-12-02T16:47:52.587Z,30.78
2022-12-02T16:51:09.424Z,30.93
2022-12-02T16:57:42.372Z,33.05
2022-12-02T17:00:58.811Z,33.50
2022-12-02T17:04:15.648Z,32.50
2022-12-02T17:07:32.690Z,33.18
2022-12-02T17:10:48.957Z,32.95
2022-12-02T17:14:07.529Z,30.78
2022-12-02T17:17:44.911Z,32.90
2022-12-02T17:20:44.057Z,32.55
2022-12-02T17:28:14.290Z,29.63
2022-12-02T17:31:34.489Z,33.43
2022-12-02T17:34:51.701Z,33.15
2022-12-02T17:38:09.200Z,32.73
2022-12-02T17:41:26.129Z,33.10
2022-12-02T17:44:42.687Z,34.45
2022-12-02T17:47:59.243Z,34.25
2022-12-02T17:51:16.593Z,34.20
2022-12-02T17:54:33.952Z,34.33
2022-12-02T17:57:51.575Z,33.40
2022-12-02T18:01:12.472Z,33.50
2022-12-02T18:04:29.559Z,34.40
2022-12-02T18:07:46.374Z,34.78
2022-12-02T18:11:06.237Z,34.33
2022-12-02T18:14:22.953Z,35.15
2022-12-02T18:17:39.693Z,34.38
2022-12-02T18:20:56.628Z,36.68
2022-12-02T18:28:37.282Z,35.93
2022-12-02T18:31:55.007Z,48.23
2022-12-02T18:35:13.151Z,35.08
2022-12-02T18:38:31.399Z,34.83
2022-12-02T18:41:52.219Z,35.30
2022-12-02T18:45:13.719Z,35.28
2022-12-02T18:48:33.700Z,35.95
2022-12-02T18:52:00.120Z,34.48
2022-12-02T18:58:40.687Z,35.98
2022-12-02T19:01:55.420Z,36.23
2022-12-02T19:05:17.686Z,36.83
2022-12-02T19:08:36.472Z,37.05
2022-12-02T19:11:54.110Z,36.23
2022-12-02T19:15:11.617Z,35.95
2022-12-02T19:18:28.687Z,36.08
2022-12-02T19:21:50.608Z,38.83
2022-12-02T19:28:24.271Z,39.15
2022-12-02T19:31:44.387Z,39.75
2022-12-02T19:35:02.090Z,43.55
2022-12-02T19:38:19.564Z,38.38
2022-12-02T19:44:55.141Z,41.85
2022-12-02T19:48:13.549Z,41.28
2022-12-02T19:51:31.188Z,39.53
2022-12-02T19:59:51.018Z,40.40
2022-12-02T20:03:09.650Z,41.13
2022-12-02T20:06:27.277Z,41.63
2022-12-02T20:14:44.473Z,40.00
2022-12-02T20:18:08.452Z,40.23
2022-12-02T20:21:25.567Z,41.38
2022-12-02T20:24:45.070Z,39.40
2022-12-02T20:31:20.728Z,39.85
2022-12-02T20:34:40.851Z,37.65
2022-12-02T20:38:07.875Z,39.80
2022-12-02T20:41:29.811Z,39.18
2022-12-02T20:44:52.176Z,40.68
2022-12-02T20:48:07.386Z,39.50
2022-12-02T20:51:24.084Z,40.73
2022-12-02T20:54:51.267Z,37.88
2022-12-02T21:01:26.520Z,38.93
2022-12-02T21:04:50.986Z,39.53
2022-12-02T21:08:09.452Z,38.15
2022-12-02T21:14:45.197Z,38.83
2022-12-02T21:18:01.891Z,39.73
2022-12-02T21:21:19.241Z,39.55
2022-12-02T21:24:38.913Z,38.83
2022-12-02T21:31:25.343Z,40.73
2022-12-02T21:34:50.052Z,40.78
2022-12-02T21:44:38.720Z,40.43
2022-12-02T21:47:55.602Z,39.65
2022-12-02T21:51:12.724Z,40.53
2022-12-02T21:54:37.893Z,38.28
2022-12-02T22:01:28.550Z,37.65
2022-12-02T22:04:48.309Z,39.43
2022-12-02T22:08:18.088Z,42.18
2022-12-02T22:14:52.443Z,40.58
2022-12-02T22:18:13.374Z,42.48
2022-12-02T22:21:30.478Z,41.55
2022-12-02T22:24:52.337Z,40.33
2022-12-02T22:31:26.332Z,42.90
2022-12-02T22:34:45.427Z,42.68
2022-12-02T22:38:02.457Z,44.45
2022-12-02T22:41:19.971Z,45.00
2022-12-02T22:44:36.905Z,41.30
2022-12-02T22:47:53.664Z,43.60
2022-12-02T22:51:10.027Z,43.28
2022-12-02T22:54:29.234Z,43.68
2022-12-02T22:57:48.554Z,43.85
2022-12-02T23:01:05.914Z,44.65
2022-12-02T23:04:24.030Z,41.93
2022-12-02T23:07:40.595Z,45.15
2022-12-02T23:10:57.792Z,43.70
2022-12-02T23:14:14.118Z,41.05
2022-12-02T23:17:30.872Z,44.13
2022-12-02T23:20:47.191Z,43.15
2022-12-02T23:24:05.387Z,45.30
2022-12-02T23:30:38.035Z,42.43
2022-12-02T23:33:56.342Z,43.87
2022-12-02T23:37:12.949Z,43.33
2022-12-02T23:40:29.683Z,43.43
2022-12-02T23:47:04.837Z,44.50
2022-12-02T23:50:22.527Z,43.33
2022-12-02T23:53:39.147Z,42.13
2022-12-02T23:56:56.778Z,44.53
